sensor_id;sensor_type;location;lat;lon;timestamp;P1;durP1;ratioP1;P2;durP2;ratioP2
76548;SDS011;65391;52.068;4.542;2024-03-23T00:55:14;14.1;;;3.9;;
76548;SDS011;65391;52.068;4.542;2024-03-23T00:57:39;14.1;;;3.9;;
76548;SDS011;65391;52.068;4.542;2024-03-23T01:00:05;14.8;;;3.6;;
76548;SDS011;65391;52.068;4.542;2024-03-23T01:02:29;14.8;;;3.6;;
76548;SDS011;65391;52.068;4.542;2024-03-23T01:04:54;14.8;;;3.6;;
76548;SDS011;65391;52.068;4.542;2024-03-23T01:07:19;14.8;;;3.6;;
76548;SDS011;65391;52.068;4.542;2024-03-23T01:09:44;14.8;;;3.6;;
76548;SDS011;65391;52.068;4.542;2024-03-23T01:12:09;14.1;;;3.1;;
76548;SDS011;65391;52.068;4.542;2024-03-23T01:14:34;14.1;;;3.1;;
76548;SDS011;65391;52.068;4.542;2024-03-23T01:16:59;14.1;;;3.1;;
76548;SDS011;65391;52.068;4.542;2024-03-23T01:19:24;14.1;;;3.1;;
76548;SDS011;65391;52.068;4.542;2024-03-23T01:21:49;15.5;;;3.2;;
76548;SDS011;65391;52.068;4.542;2024-03-23T01:24:14;15.5;;;3.2;;
76548;SDS011;65391;52.068;4.542;2024-03-23T01:26:39;15.5;;;3.2;;
76548;SDS011;65391;52.068;4.542;2024-03-23T01:29:04;15.5;;;3.2;;
76548;SDS011;65391;52.068;4.542;2024-03-23T01:31:29;11.7;;;2.1;;
76548;SDS011;65391;52.068;4.542;2024-03-23T01:33:54;11.7;;;2.1;;
76548;SDS011;65391;52.068;4.542;2024-03-23T01:36:19;11.7;;;2.1;;
76548;SDS011;65391;52.068;4.542;2024-03-23T01:38:44;11.7;;;2.1;;
76548;SDS011;65391;52.068;4.542;2024-03-23T01:41:09;11.4;;;1.8;;
76548;SDS011;65391;52.068;4.542;2024-03-23T01:43:34;11.4;;;1.8;;
76548;SDS011;65391;52.068;4.542;2024-03-23T01:45:59;11.4;;;1.8;;
76548;SDS011;65391;52.068;4.542;2024-03-23T01:48:24;11.4;;;1.8;;
76548;SDS011;65391;52.068;4.542;2024-03-23T01:50:49;10.6;;;1.8;;
76548;SDS011;65391;52.068;4.542;2024-03-23T01:53:14;10.6;;;1.8;;
76548;SDS011;65391;52.068;4.542;2024-03-23T01:55:39;10.6;;;1.8;;
76548;SDS011;65391;52.068;4.542;2024-03-23T01:58:04;10.6;;;1.8;;
76548;SDS011;65391;52.068;4.542;2024-03-23T02:00:29;13.4;;;2.1;;
76548;SDS011;65391;52.068;4.542;2024-03-23T02:02:54;13.4;;;2.1;;
76548;SDS011;65391;52.068;4.542;2024-03-23T02:05:19;13.4;;;2.1;;
76548;SDS011;65391;52.068;4.542;2024-03-23T02:07:44;13.4;;;2.1;;
76548;SDS011;65391;52.068;4.542;2024-03-23T02:10:10;12.5;;;1.9;;
76548;SDS011;65391;52.068;4.542;2024-03-23T02:12:34;12.5;;;1.9;;
76548;SDS011;65391;52.068;4.542;2024-03-23T02:14:59;12.5;;;1.9;;
76548;SDS011;65391;52.068;4.542;2024-03-23T02:17:24;12.5;;;1.9;;
76548;SDS011;65391;52.068;4.542;2024-03-23T02:19:50;12.5;;;1.9;;
76548;SDS011;65391;52.068;4.542;2024-03-23T02:22:14;11.1;;;1.9;;
76548;SDS011;65391;52.068;4.542;2024-03-23T02:24:39;11.1;;;1.9;;
76548;SDS011;65391;52.068;4.542;2024-03-23T02:27:04;11.1;;;1.9;;
76548;SDS011;65391;52.068;4.542;2024-03-23T02:29:30;11.1;;;1.9;;
76548;SDS011;65391;52.068;4.542;2024-03-23T02:31:54;8.4;;;1.4;;
76548;SDS011;65391;52.068;4.542;2024-03-23T02:34:19;8.4;;;1.4;;
76548;SDS011;65391;52.068;4.542;2024-03-23T02:36:44;8.4;;;1.4;;
76548;SDS011;65391;52.068;4.542;2024-03-23T02:39:09;8.4;;;1.4;;
76548;SDS011;65391;52.068;4.542;2024-03-23T02:41:34;10.2;;;2;;
76548;SDS011;65391;52.068;4.542;2024-03-23T02:43:59;10.2;;;2;;
76548;SDS011;65391;52.068;4.542;2024-03-23T02:46:24;10.2;;;2;;
76548;SDS011;65391;52.068;4.542;2024-03-23T02:48:49;10.2;;;2;;
76548;SDS011;65391;52.068;4.542;2024-03-23T02:51:14;10.8;;;2;;
76548;SDS011;65391;52.068;4.542;2024-03-23T02:53:39;10.8;;;2;;
76548;SDS011;65391;52.068;4.542;2024-03-23T02:56:04;10.8;;;2;;
76548;SDS011;65391;52.068;4.542;2024-03-23T02:58:29;10.8;;;2;;
76548;SDS011;65391;52.068;4.542;2024-03-23T03:00:54;9;;;1.6;;
76548;SDS011;65391;52.068;4.542;2024-03-23T03:03:19;9;;;1.6;;
76548;SDS011;65391;52.068;4.542;2024-03-23T03:05:44;9;;;1.6;;
76548;SDS011;65391;52.068;4.542;2024-03-23T03:08:09;9;;;1.6;;
76548;SDS011;65391;52.068;4.542;2024-03-23T03:10:34;13.2;;;1.8;;
76548;SDS011;65391;52.068;4.542;2024-03-23T03:12:59;13.2;;;1.8;;
76548;SDS011;65391;52.068;4.542;2024-03-23T03:15:24;13.2;;;1.8;;
76548;SDS011;65391;52.068;4.542;2024-03-23T03:17:49;13.2;;;1.8;;
76548;SDS011;65391;52.068;4.542;2024-03-23T03:20:14;7.6;;;1.8;;
76548;SDS011;65391;52.068;4.542;2024-03-23T03:22:39;7.6;;;1.8;;
76548;SDS011;65391;52.068;4.542;2024-03-23T03:25:05;7.6;;;1.8;;
76548;SDS011;65391;52.068;4.542;2024-03-23T03:27:29;7.6;;;1.8;;
76548;SDS011;65391;52.068;4.542;2024-03-23T03:29:54;7.6;;;1.8;;
76548;SDS011;65391;52.068;4.542;2024-03-23T03:32:20;8.7;;;1.5;;
76548;SDS011;65391;52.068;4.542;2024-03-23T03:34:44;8.7;;;1.5;;
76548;SDS011;65391;52.068;4.542;2024-03-23T03:37:09;8.7;;;1.5;;
76548;SDS011;65391;52.068;4.542;2024-03-23T03:39:35;8.7;;;1.5;;
76548;SDS011;65391;52.068;4.542;2024-03-23T03:41:59;9.2;;;1.4;;
76548;SDS011;65391;52.068;4.542;2024-03-23T03:44:24;9.2;;;1.4;;
76548;SDS011;65391;52.068;4.542;2024-03-23T03:46:49;9.2;;;1.4;;
76548;SDS011;65391;52.068;4.542;2024-03-23T03:49:14;9.2;;;1.4;;
76548;SDS011;65391;52.068;4.542;2024-03-23T03:51:40;11.6;;;1.6;;
76548;SDS011;65391;52.068;4.542;2024-03-23T03:54:04;11.6;;;1.6;;
76548;SDS011;65391;52.068;4.542;2024-03-23T03:56:29;11.6;;;1.6;;
76548;SDS011;65391;52.068;4.542;2024-03-23T03:58:54;11.6;;;1.6;;
76548;SDS011;65391;52.068;4.542;2024-03-23T04:01:19;10.1;;;2.1;;
76548;SDS011;65391;52.068;4.542;2024-03-23T04:03:44;10.1;;;2.1;;
76548;SDS011;65391;52.068;4.542;2024-03-23T04:06:09;10.1;;;2.1;;
76548;SDS011;65391;52.068;4.542;2024-03-23T04:08:34;10.1;;;2.1;;
76548;SDS011;65391;52.068;4.542;2024-03-23T04:10:59;7.3;;;1.6;;
76548;SDS011;65391;52.068;4.542;2024-03-23T04:13:24;7.3;;;1.6;;
76548;SDS011;65391;52.068;4.542;2024-03-23T04:15:53;7.3;;;1.6;;
76548;SDS011;65391;52.068;4.542;2024-03-23T04:18:14;7.3;;;1.6;;
76548;SDS011;65391;52.068;4.542;2024-03-23T04:20:39;5.9;;;1.8;;
76548;SDS011;65391;52.068;4.542;2024-03-23T04:23:04;5.9;;;1.8;;
76548;SDS011;65391;52.068;4.542;2024-03-23T04:25:29;5.9;;;1.8;;
76548;SDS011;65391;52.068;4.542;2024-03-23T04:27:54;5.9;;;1.8;;
76548;SDS011;65391;52.068;4.542;2024-03-23T04:30:19;8.1;;;1.6;;
76548;SDS011;65391;52.068;4.542;2024-03-23T04:32:44;8.1;;;1.6;;
76548;SDS011;65391;52.068;4.542;2024-03-23T04:35:09;8.1;;;1.6;;
76548;SDS011;65391;52.068;4.542;2024-03-23T04:37:34;8.1;;;1.6;;
76548;SDS011;65391;52.068;4.542;2024-03-23T04:39:59;8.1;;;1.6;;
76548;SDS011;65391;52.068;4.542;2024-03-23T04:42:24;10.9;;;1.9;;
76548;SDS011;65391;52.068;4.542;2024-03-23T04:44:49;10.9;;;1.9;;
76548;SDS011;65391;52.068;4.542;2024-03-23T04:47:14;10.9;;;1.9;;
76548;SDS011;65391;52.068;4.542;2024-03-23T04:49:39;10.9;;;1.9;;
76548;SDS011;65391;52.068;4.542;2024-03-23T04:52:05;11.3;;;1.7;;
76548;SDS011;65391;52.068;4.542;2024-03-23T04:54:29;11.3;;;1.7;;
76548;SDS011;65391;52.068;4.542;2024-03-23T04:56:54;11.3;;;1.7;;
76548;SDS011;65391;52.068;4.542;2024-03-23T04:59:19;11.3;;;1.7;;
76548;SDS011;65391;52.068;4.542;2024-03-23T05:01:44;13.6;;;1.9;;
76548;SDS011;65391;52.068;4.542;2024-03-23T05:04:09;13.6;;;1.9;;
76548;SDS011;65391;52.068;4.542;2024-03-23T05:06:34;13.6;;;1.9;;
76548;SDS011;65391;52.068;4.542;2024-03-23T05:09:00;13.6;;;1.9;;
76548;SDS011;65391;52.068;4.542;2024-03-23T05:11:24;8.7;;;2.1;;
76548;SDS011;65391;52.068;4.542;2024-03-23T05:13:49;8.7;;;2.1;;
76548;SDS011;65391;52.068;4.542;2024-03-23T05:16:14;8.7;;;2.1;;
76548;SDS011;65391;52.068;4.542;2024-03-23T05:18:39;8.7;;;2.1;;
76548;SDS011;65391;52.068;4.542;2024-03-23T05:21:04;9.1;;;1.8;;
76548;SDS011;65391;52.068;4.542;2024-03-23T05:23:29;9.1;;;1.8;;
76548;SDS011;65391;52.068;4.542;2024-03-23T05:25:54;9.1;;;1.8;;
76548;SDS011;65391;52.068;4.542;2024-03-23T05:28:20;9.1;;;1.8;;
76548;SDS011;65391;52.068;4.542;2024-03-23T05:30:50;9.8;;;3;;
76548;SDS011;65391;52.068;4.542;2024-03-23T05:33:09;9.8;;;3;;
76548;SDS011;65391;52.068;4.542;2024-03-23T05:35:34;9.8;;;3;;
76548;SDS011;65391;52.068;4.542;2024-03-23T05:37:59;9.8;;;3;;
76548;SDS011;65391;52.068;4.542;2024-03-23T05:40:25;13;;;2.3;;
76548;SDS011;65391;52.068;4.542;2024-03-23T05:42:49;13;;;2.3;;
76548;SDS011;65391;52.068;4.542;2024-03-23T05:45:14;13;;;2.3;;
76548;SDS011;65391;52.068;4.542;2024-03-23T05:47:39;13;;;2.3;;
76548;SDS011;65391;52.068;4.542;2024-03-23T05:50:05;13;;;2.3;;
76548;SDS011;65391;52.068;4.542;2024-03-23T05:52:29;9.4;;;1.8;;
76548;SDS011;65391;52.068;4.542;2024-03-23T05:54:54;9.4;;;1.8;;
76548;SDS011;65391;52.068;4.542;2024-03-23T05:57:19;9.4;;;1.8;;
76548;SDS011;65391;52.068;4.542;2024-03-23T05:59:44;9.4;;;1.8;;
76548;SDS011;65391;52.068;4.542;2024-03-23T06:02:09;12.7;;;2.8;;
76548;SDS011;65391;52.068;4.542;2024-03-23T06:04:34;12.7;;;2.8;;
76548;SDS011;65391;52.068;4.542;2024-03-23T06:06:59;12.7;;;2.8;;
76548;SDS011;65391;52.068;4.542;2024-03-23T06:09:24;12.7;;;2.8;;
76548;SDS011;65391;52.068;4.542;2024-03-23T06:11:49;16.3;;;2.9;;
76548;SDS011;65391;52.068;4.542;2024-03-23T06:14:14;16.3;;;2.9;;
76548;SDS011;65391;52.068;4.542;2024-03-23T06:16:39;16.3;;;2.9;;
76548;SDS011;65391;52.068;4.542;2024-03-23T06:19:04;16.3;;;2.9;;
76548;SDS011;65391;52.068;4.542;2024-03-23T06:21:29;12.5;;;2.5;;
76548;SDS011;65391;52.068;4.542;2024-03-23T06:23:54;12.5;;;2.5;;
76548;SDS011;65391;52.068;4.542;2024-03-23T06:26:20;12.5;;;2.5;;
76548;SDS011;65391;52.068;4.542;2024-03-23T06:28:44;12.5;;;2.5;;
76548;SDS011;65391;52.068;4.542;2024-03-23T06:31:09;10.6;;;2;;
76548;SDS011;65391;52.068;4.542;2024-03-23T06:33:34;10.6;;;2;;
76548;SDS011;65391;52.068;4.542;2024-03-23T06:35:59;10.6;;;2;;
76548;SDS011;65391;52.068;4.542;2024-03-23T06:38:24;10.6;;;2;;
76548;SDS011;65391;52.068;4.542;2024-03-23T06:40:49;13.6;;;2.2;;
76548;SDS011;65391;52.068;4.542;2024-03-23T06:43:14;13.6;;;2.2;;
76548;SDS011;65391;52.068;4.542;2024-03-23T06:45:39;13.6;;;2.2;;
76548;SDS011;65391;52.068;4.542;2024-03-23T06:48:05;13.6;;;2.2;;
76548;SDS011;65391;52.068;4.542;2024-03-23T06:50:29;8.6;;;1.3;;
76548;SDS011;65391;52.068;4.542;2024-03-23T06:52:54;8.6;;;1.3;;
76548;SDS011;65391;52.068;4.542;2024-03-23T06:55:19;8.6;;;1.3;;
76548;SDS011;65391;52.068;4.542;2024-03-23T06:57:44;8.6;;;1.3;;
76548;SDS011;65391;52.068;4.542;2024-03-23T07:00:10;8.6;;;1.3;;
76548;SDS011;65391;52.068;4.542;2024-03-23T07:02:34;15.1;;;3.3;;
76548;SDS011;65391;52.068;4.542;2024-03-23T07:04:59;15.1;;;3.3;;
76548;SDS011;65391;52.068;4.542;2024-03-23T07:07:24;15.1;;;3.3;;
76548;SDS011;65391;52.068;4.542;2024-03-23T07:09:49;15.1;;;3.3;;
76548;SDS011;65391;52.068;4.542;2024-03-23T07:12:14;10.8;;;2.4;;
76548;SDS011;65391;52.068;4.542;2024-03-23T07:14:39;10.8;;;2.4;;
76548;SDS011;65391;52.068;4.542;2024-03-23T07:17:04;10.8;;;2.4;;
76548;SDS011;65391;52.068;4.542;2024-03-23T07:19:29;10.8;;;2.4;;
76548;SDS011;65391;52.068;4.542;2024-03-23T07:21:54;10.6;;;2.2;;
76548;SDS011;65391;52.068;4.542;2024-03-23T07:24:19;10.6;;;2.2;;
76548;SDS011;65391;52.068;4.542;2024-03-23T07:26:44;10.6;;;2.2;;
76548;SDS011;65391;52.068;4.542;2024-03-23T07:29:09;10.6;;;2.2;;
76548;SDS011;65391;52.068;4.542;2024-03-23T07:31:34;10.8;;;2.1;;
76548;SDS011;65391;52.068;4.542;2024-03-23T07:33:59;10.8;;;2.1;;
76548;SDS011;65391;52.068;4.542;2024-03-23T07:36:24;10.8;;;2.1;;
76548;SDS011;65391;52.068;4.542;2024-03-23T07:38:49;10.8;;;2.1;;
76548;SDS011;65391;52.068;4.542;2024-03-23T07:41:15;5.1;;;1.6;;
76548;SDS011;65391;52.068;4.542;2024-03-23T07:43:39;5.1;;;1.6;;
76548;SDS011;65391;52.068;4.542;2024-03-23T07:46:05;5.1;;;1.6;;
76548;SDS011;65391;52.068;4.542;2024-03-23T07:48:30;5.1;;;1.6;;
76548;SDS011;65391;52.068;4.542;2024-03-23T07:50:58;12.7;;;1.7;;
76548;SDS011;65391;52.068;4.542;2024-03-23T07:53:19;12.7;;;1.7;;
76548;SDS011;65391;52.068;4.542;2024-03-23T07:55:52;12.7;;;1.7;;
76548;SDS011;65391;52.068;4.542;2024-03-23T07:58:09;12.7;;;1.7;;
76548;SDS011;65391;52.068;4.542;2024-03-23T08:00:34;9.4;;;1.8;;
76548;SDS011;65391;52.068;4.542;2024-03-23T08:02:59;9.4;;;1.8;;
76548;SDS011;65391;52.068;4.542;2024-03-23T08:05:26;9.4;;;1.8;;
76548;SDS011;65391;52.068;4.542;2024-03-23T08:07:50;9.4;;;1.8;;
76548;SDS011;65391;52.068;4.542;2024-03-23T08:10:14;9.4;;;1.8;;
76548;SDS011;65391;52.068;4.542;2024-03-23T08:12:39;8.2;;;1.8;;
76548;SDS011;65391;52.068;4.542;2024-03-23T08:15:05;8.2;;;1.8;;
76548;SDS011;65391;52.068;4.542;2024-03-23T08:17:29;8.2;;;1.8;;
76548;SDS011;65391;52.068;4.542;2024-03-23T08:19:54;8.2;;;1.8;;
76548;SDS011;65391;52.068;4.542;2024-03-23T08:22:19;14.5;;;2.1;;
76548;SDS011;65391;52.068;4.542;2024-03-23T08:24:44;14.5;;;2.1;;
76548;SDS011;65391;52.068;4.542;2024-03-23T08:27:09;14.5;;;2.1;;
76548;SDS011;65391;52.068;4.542;2024-03-23T08:29:35;14.5;;;2.1;;
76548;SDS011;65391;52.068;4.542;2024-03-23T08:31:59;9.4;;;2.2;;
76548;SDS011;65391;52.068;4.542;2024-03-23T08:34:24;9.4;;;2.2;;
76548;SDS011;65391;52.068;4.542;2024-03-23T08:36:49;9.4;;;2.2;;
76548;SDS011;65391;52.068;4.542;2024-03-23T08:39:14;9.4;;;2.2;;
76548;SDS011;65391;52.068;4.542;2024-03-23T08:41:39;7.8;;;2.2;;
76548;SDS011;65391;52.068;4.542;2024-03-23T08:44:04;7.8;;;2.2;;
76548;SDS011;65391;52.068;4.542;2024-03-23T08:46:29;7.8;;;2.2;;
76548;SDS011;65391;52.068;4.542;2024-03-23T08:48:54;7.8;;;2.2;;
76548;SDS011;65391;52.068;4.542;2024-03-23T08:51:19;14;;;2.4;;
76548;SDS011;65391;52.068;4.542;2024-03-23T08:53:45;14;;;2.4;;
76548;SDS011;65391;52.068;4.542;2024-03-23T08:56:10;14;;;2.4;;
76548;SDS011;65391;52.068;4.542;2024-03-23T08:58:35;14;;;2.4;;
76548;SDS011;65391;52.068;4.542;2024-03-23T09:01:03;6.1;;;1.7;;
76548;SDS011;65391;52.068;4.542;2024-03-23T09:03:25;6.1;;;1.7;;
76548;SDS011;65391;52.068;4.542;2024-03-23T09:05:50;6.1;;;1.7;;
76548;SDS011;65391;52.068;4.542;2024-03-23T09:08:14;6.1;;;1.7;;
76548;SDS011;65391;52.068;4.542;2024-03-23T09:10:39;7.4;;;1.6;;
76548;SDS011;65391;52.068;4.542;2024-03-23T09:13:04;7.4;;;1.6;;
76548;SDS011;65391;52.068;4.542;2024-03-23T09:15:29;7.4;;;1.6;;
76548;SDS011;65391;52.068;4.542;2024-03-23T09:17:54;7.4;;;1.6;;
76548;SDS011;65391;52.068;4.542;2024-03-23T09:44:29;14.6;;;1.9;;
76548;SDS011;65391;52.068;4.542;2024-03-23T09:46:54;14.6;;;1.9;;
76548;SDS011;65391;52.068;4.542;2024-03-23T10:16:37;4;;;1.2;;
76548;SDS011;65391;52.068;4.542;2024-03-23T10:19:02;4;;;1.2;;
76548;SDS011;65391;52.068;4.542;2024-03-23T10:21:27;4;;;1.2;;
76548;SDS011;65391;52.068;4.542;2024-03-23T10:23:52;12.7;;;3.1;;
76548;SDS011;65391;52.068;4.542;2024-03-23T10:26:18;12.7;;;3.1;;
76548;SDS011;65391;52.068;4.542;2024-03-23T10:28:54;12.7;;;3.1;;
76548;SDS011;65391;52.068;4.542;2024-03-23T10:31:08;12.7;;;3.1;;
76548;SDS011;65391;52.068;4.542;2024-03-23T10:33:32;12.3;;;2.2;;
76548;SDS011;65391;52.068;4.542;2024-03-23T10:35:57;12.3;;;2.2;;
76548;SDS011;65391;52.068;4.542;2024-03-23T10:38:22;12.3;;;2.2;;
76548;SDS011;65391;52.068;4.542;2024-03-23T10:40:47;12.3;;;2.2;;
76548;SDS011;65391;52.068;4.542;2024-03-23T10:43:12;12.3;;;2.2;;
76548;SDS011;65391;52.068;4.542;2024-03-23T10:45:37;7.8;;;2;;
76548;SDS011;65391;52.068;4.542;2024-03-23T10:48:02;7.8;;;2;;
76548;SDS011;65391;52.068;4.542;2024-03-23T10:50:27;7.8;;;2;;
76548;SDS011;65391;52.068;4.542;2024-03-23T10:52:52;7.8;;;2;;
76548;SDS011;65391;52.068;4.542;2024-03-23T10:55:17;8.6;;;2.1;;
76548;SDS011;65391;52.068;4.542;2024-03-23T10:57:43;8.6;;;2.1;;
76548;SDS011;65391;52.068;4.542;2024-03-23T11:00:07;8.6;;;2.1;;
76548;SDS011;65391;52.068;4.542;2024-03-23T11:02:32;8.6;;;2.1;;
76548;SDS011;65391;52.068;4.542;2024-03-23T11:04:57;6;;;1.4;;
76548;SDS011;65391;52.068;4.542;2024-03-23T11:07:30;6;;;1.4;;
76548;SDS011;65391;52.068;4.542;2024-03-23T11:09:47;6;;;1.4;;
76548;SDS011;65391;52.068;4.542;2024-03-23T11:12:17;6;;;1.4;;
76548;SDS011;65391;52.068;4.542;2024-03-23T11:14:37;14.5;;;1.9;;
76548;SDS011;65391;52.068;4.542;2024-03-23T11:17:08;14.5;;;1.9;;
76548;SDS011;65391;52.068;4.542;2024-03-23T11:19:34;14.5;;;1.9;;
76548;SDS011;65391;52.068;4.542;2024-03-23T11:21:52;14.5;;;1.9;;
76548;SDS011;65391;52.068;4.542;2024-03-23T11:24:17;4.1;;;1.1;;
76548;SDS011;65391;52.068;4.542;2024-03-23T11:26:42;4.1;;;1.1;;
76548;SDS011;65391;52.068;4.542;2024-03-23T11:29:09;4.1;;;1.1;;
76548;SDS011;65391;52.068;4.542;2024-03-23T11:31:32;4.1;;;1.1;;
76548;SDS011;65391;52.068;4.542;2024-03-23T11:34:03;3.3;;;0.8;;
76548;SDS011;65391;52.068;4.542;2024-03-23T11:36:22;3.3;;;0.8;;
76548;SDS011;65391;52.068;4.542;2024-03-23T11:38:47;3.3;;;0.8;;
76548;SDS011;65391;52.068;4.542;2024-03-23T11:41:12;3.3;;;0.8;;
76548;SDS011;65391;52.068;4.542;2024-03-23T11:43:37;5.2;;;1.8;;
76548;SDS011;65391;52.068;4.542;2024-03-23T11:46:02;5.2;;;1.8;;
76548;SDS011;65391;52.068;4.542;2024-03-23T11:48:27;5.2;;;1.8;;
76548;SDS011;65391;52.068;4.542;2024-03-23T11:50:55;5.2;;;1.8;;
76548;SDS011;65391;52.068;4.542;2024-03-23T11:53:17;5.2;;;1.8;;
76548;SDS011;65391;52.068;4.542;2024-03-23T11:55:43;5.5;;;1.4;;
76548;SDS011;65391;52.068;4.542;2024-03-23T11:58:07;5.5;;;1.4;;
76548;SDS011;65391;52.068;4.542;2024-03-23T12:00:32;5.5;;;1.4;;
76548;SDS011;65391;52.068;4.542;2024-03-23T12:03:00;5.5;;;1.4;;
76548;SDS011;65391;52.068;4.542;2024-03-23T12:05:22;4.4;;;1.1;;
76548;SDS011;65391;52.068;4.542;2024-03-23T12:07:47;4.4;;;1.1;;
76548;SDS011;65391;52.068;4.542;2024-03-23T12:10:12;4.4;;;1.1;;
76548;SDS011;65391;52.068;4.542;2024-03-23T12:12:37;4.4;;;1.1;;
76548;SDS011;65391;52.068;4.542;2024-03-23T12:15:03;8.8;;;2;;
76548;SDS011;65391;52.068;4.542;2024-03-23T12:17:27;8.8;;;2;;
76548;SDS011;65391;52.068;4.542;2024-03-23T12:19:52;8.8;;;2;;
76548;SDS011;65391;52.068;4.542;2024-03-23T12:22:20;8.8;;;2;;
76548;SDS011;65391;52.068;4.542;2024-03-23T12:24:42;4.3;;;1.2;;
76548;SDS011;65391;52.068;4.542;2024-03-23T12:27:07;4.3;;;1.2;;
76548;SDS011;65391;52.068;4.542;2024-03-23T12:29:32;4.3;;;1.2;;
76548;SDS011;65391;52.068;4.542;2024-03-23T12:31:59;4.3;;;1.2;;
76548;SDS011;65391;52.068;4.542;2024-03-23T12:34:22;6.6;;;0.9;;
76548;SDS011;65391;52.068;4.542;2024-03-23T12:36:47;6.6;;;0.9;;
76548;SDS011;65391;52.068;4.542;2024-03-23T12:39:12;6.6;;;0.9;;
76548;SDS011;65391;52.068;4.542;2024-03-23T12:41:37;6.6;;;0.9;;
76548;SDS011;65391;52.068;4.542;2024-03-23T12:44:02;3.3;;;0.9;;
76548;SDS011;65391;52.068;4.542;2024-03-23T12:46:27;3.3;;;0.9;;
76548;SDS011;65391;52.068;4.542;2024-03-23T12:48:52;3.3;;;0.9;;
76548;SDS011;65391;52.068;4.542;2024-03-23T12:51:17;3.3;;;0.9;;
76548;SDS011;65391;52.068;4.542;2024-03-23T12:53:42;6.3;;;1.1;;
76548;SDS011;65391;52.068;4.542;2024-03-23T12:56:07;6.3;;;1.1;;
76548;SDS011;65391;52.068;4.542;2024-03-23T12:58:32;6.3;;;1.1;;
76548;SDS011;65391;52.068;4.542;2024-03-23T13:00:58;6.3;;;1.1;;
76548;SDS011;65391;52.068;4.542;2024-03-23T13:03:22;6.3;;;1.1;;
76548;SDS011;65391;52.068;4.542;2024-03-23T13:05:51;7;;;1.8;;
76548;SDS011;65391;52.068;4.542;2024-03-23T13:08:12;7;;;1.8;;
76548;SDS011;65391;52.068;4.542;2024-03-23T13:10:37;7;;;1.8;;
76548;SDS011;65391;52.068;4.542;2024-03-23T13:13:02;7;;;1.8;;
76548;SDS011;65391;52.068;4.542;2024-03-23T13:15:27;11.9;;;1.9;;
76548;SDS011;65391;52.068;4.542;2024-03-23T13:17:52;11.9;;;1.9;;
76548;SDS011;65391;52.068;4.542;2024-03-23T13:20:17;11.9;;;1.9;;
76548;SDS011;65391;52.068;4.542;2024-03-23T13:22:42;11.9;;;1.9;;
76548;SDS011;65391;52.068;4.542;2024-03-23T13:25:07;11;;;2;;
76548;SDS011;65391;52.068;4.542;2024-03-23T13:27:32;11;;;2;;
76548;SDS011;65391;52.068;4.542;2024-03-23T13:29:57;11;;;2;;
76548;SDS011;65391;52.068;4.542;2024-03-23T13:32:22;11;;;2;;
76548;SDS011;65391;52.068;4.542;2024-03-23T13:34:47;3.5;;;1.1;;
76548;SDS011;65391;52.068;4.542;2024-03-23T13:37:12;3.5;;;1.1;;
76548;SDS011;65391;52.068;4.542;2024-03-23T13:39:37;3.5;;;1.1;;
76548;SDS011;65391;52.068;4.542;2024-03-23T13:42:02;3.5;;;1.1;;
76548;SDS011;65391;52.068;4.542;2024-03-23T13:44:27;10;;;1.4;;
76548;SDS011;65391;52.068;4.542;2024-03-23T13:46:52;10;;;1.4;;
76548;SDS011;65391;52.068;4.542;2024-03-23T13:49:24;10;;;1.4;;
76548;SDS011;65391;52.068;4.542;2024-03-23T13:51:43;10;;;1.4;;
76548;SDS011;65391;52.068;4.542;2024-03-23T13:54:07;6.2;;;0.8;;
76548;SDS011;65391;52.068;4.542;2024-03-23T13:56:32;6.2;;;0.8;;
76548;SDS011;65391;52.068;4.542;2024-03-23T13:58:57;6.2;;;0.8;;
76548;SDS011;65391;52.068;4.542;2024-03-23T14:01:22;6.2;;;0.8;;
76548;SDS011;65391;52.068;4.542;2024-03-23T14:03:47;4.6;;;1.5;;
76548;SDS011;65391;52.068;4.542;2024-03-23T14:06:12;4.6;;;1.5;;
76548;SDS011;65391;52.068;4.542;2024-03-23T14:08:37;4.6;;;1.5;;
76548;SDS011;65391;52.068;4.542;2024-03-23T14:11:02;4.6;;;1.5;;
76548;SDS011;65391;52.068;4.542;2024-03-23T14:13:27;4.6;;;1.5;;
76548;SDS011;65391;52.068;4.542;2024-03-23T14:15:52;4.8;;;1;;
76548;SDS011;65391;52.068;4.542;2024-03-23T14:18:17;4.8;;;1;;
76548;SDS011;65391;52.068;4.542;2024-03-23T14:20:42;4.8;;;1;;
76548;SDS011;65391;52.068;4.542;2024-03-23T14:23:07;4.8;;;1;;
76548;SDS011;65391;52.068;4.542;2024-03-23T14:25:32;7.7;;;1.1;;
76548;SDS011;65391;52.068;4.542;2024-03-23T14:27:57;7.7;;;1.1;;
76548;SDS011;65391;52.068;4.542;2024-03-23T14:30:22;7.7;;;1.1;;
76548;SDS011;65391;52.068;4.542;2024-03-23T14:32:47;7.7;;;1.1;;
76548;SDS011;65391;52.068;4.542;2024-03-23T14:35:12;3.8;;;0.8;;
76548;SDS011;65391;52.068;4.542;2024-03-23T14:37:37;3.8;;;0.8;;
76548;SDS011;65391;52.068;4.542;2024-03-23T14:40:02;3.8;;;0.8;;
76548;SDS011;65391;52.068;4.542;2024-03-23T14:42:27;3.8;;;0.8;;
76548;SDS011;65391;52.068;4.542;2024-03-23T14:44:52;9.8;;;2.1;;
76548;SDS011;65391;52.068;4.542;2024-03-23T14:47:17;9.8;;;2.1;;
76548;SDS011;65391;52.068;4.542;2024-03-23T14:49:42;9.8;;;2.1;;
76548;SDS011;65391;52.068;4.542;2024-03-23T14:52:09;9.8;;;2.1;;
76548;SDS011;65391;52.068;4.542;2024-03-23T14:54:32;11.2;;;2.1;;
76548;SDS011;65391;52.068;4.542;2024-03-23T14:56:57;11.2;;;2.1;;
76548;SDS011;65391;52.068;4.542;2024-03-23T14:59:22;11.2;;;2.1;;
76548;SDS011;65391;52.068;4.542;2024-03-23T15:01:47;11.2;;;2.1;;
76548;SDS011;65391;52.068;4.542;2024-03-23T15:04:13;4.4;;;1;;
76548;SDS011;65391;52.068;4.542;2024-03-23T15:06:37;4.4;;;1;;
76548;SDS011;65391;52.068;4.542;2024-03-23T15:09:02;4.4;;;1;;
76548;SDS011;65391;52.068;4.542;2024-03-23T15:11:27;4.4;;;1;;
76548;SDS011;65391;52.068;4.542;2024-03-23T15:13:52;3.1;;;0.8;;
76548;SDS011;65391;52.068;4.542;2024-03-23T15:16:17;3.1;;;0.8;;
76548;SDS011;65391;52.068;4.542;2024-03-23T15:18:42;3.1;;;0.8;;
76548;SDS011;65391;52.068;4.542;2024-03-23T15:21:07;3.1;;;0.8;;
76548;SDS011;65391;52.068;4.542;2024-03-23T15:23:32;3.1;;;0.8;;
76548;SDS011;65391;52.068;4.542;2024-03-23T15:25:57;6.2;;;1.6;;
76548;SDS011;65391;52.068;4.542;2024-03-23T15:28:22;6.2;;;1.6;;
76548;SDS011;65391;52.068;4.542;2024-03-23T15:30:47;6.2;;;1.6;;
76548;SDS011;65391;52.068;4.542;2024-03-23T15:33:12;6.2;;;1.6;;
76548;SDS011;65391;52.068;4.542;2024-03-23T15:35:37;8.7;;;1.6;;
76548;SDS011;65391;52.068;4.542;2024-03-23T15:38:02;8.7;;;1.6;;
76548;SDS011;65391;52.068;4.542;2024-03-23T15:40:27;8.7;;;1.6;;
76548;SDS011;65391;52.068;4.542;2024-03-23T15:42:52;8.7;;;1.6;;
76548;SDS011;65391;52.068;4.542;2024-03-23T15:45:17;3.1;;;0.9;;
76548;SDS011;65391;52.068;4.542;2024-03-23T15:47:42;3.1;;;0.9;;
76548;SDS011;65391;52.068;4.542;2024-03-23T15:50:08;3.1;;;0.9;;
76548;SDS011;65391;52.068;4.542;2024-03-23T15:52:32;3.1;;;0.9;;
76548;SDS011;65391;52.068;4.542;2024-03-23T15:54:57;5.5;;;1;;
76548;SDS011;65391;52.068;4.542;2024-03-23T15:57:22;5.5;;;1;;
76548;SDS011;65391;52.068;4.542;2024-03-23T15:59:47;5.5;;;1;;
76548;SDS011;65391;52.068;4.542;2024-03-23T16:02:12;5.5;;;1;;
76548;SDS011;65391;52.068;4.542;2024-03-23T16:04:37;3.7;;;0.6;;
76548;SDS011;65391;52.068;4.542;2024-03-23T16:07:02;3.7;;;0.6;;
76548;SDS011;65391;52.068;4.542;2024-03-23T16:09:27;3.7;;;0.6;;
76548;SDS011;65391;52.068;4.542;2024-03-23T16:11:52;3.7;;;0.6;;
76548;SDS011;65391;52.068;4.542;2024-03-23T16:14:17;6.9;;;0.9;;
76548;SDS011;65391;52.068;4.542;2024-03-23T16:16:42;6.9;;;0.9;;
76548;SDS011;65391;52.068;4.542;2024-03-23T16:19:07;6.9;;;0.9;;
76548;SDS011;65391;52.068;4.542;2024-03-23T16:21:32;6.9;;;0.9;;
76548;SDS011;65391;52.068;4.542;2024-03-23T16:23:57;5.1;;;1.5;;
76548;SDS011;65391;52.068;4.542;2024-03-23T16:26:22;5.1;;;1.5;;
76548;SDS011;65391;52.068;4.542;2024-03-23T16:28:47;5.1;;;1.5;;
76548;SDS011;65391;52.068;4.542;2024-03-23T16:31:12;5.1;;;1.5;;
76548;SDS011;65391;52.068;4.542;2024-03-23T16:33:38;5.1;;;1.5;;
76548;SDS011;65391;52.068;4.542;2024-03-23T16:36:03;9.7;;;2.9;;
76548;SDS011;65391;52.068;4.542;2024-03-23T16:38:27;9.7;;;2.9;;
76548;SDS011;65391;52.068;4.542;2024-03-23T16:40:53;9.7;;;2.9;;
76548;SDS011;65391;52.068;4.542;2024-03-23T16:43:17;9.7;;;2.9;;
76548;SDS011;65391;52.068;4.542;2024-03-23T16:45:42;3.6;;;1.4;;